Time;durP1;ratioP1;P1;durP2;ratioP2;P2;SDS_P1;SDS_P2;PMS_P1;PMS_P2;Temp;Humidity;BMP_temperature;BMP_pressure;BME280_temperature;BME280_humidity;BME280_pressure;Samples;Min_cycle;Max_cycle;Signal;HPM_P1;HPM_P2
2022/11/03 00:02:19;;;;;;;13.70;2.75;;;10.80;99.90;;;;;;5086483;28;20044;-58
2022/11/03 00:39:59;;;;;;;16.25;3.10;;;10.90;99.90;;;;;;5074157;28;20040;-59
2022/11/03 00:42:25;;;;;;;10.95;2.65;;;10.90;99.90;;;;;;5082721;28;20047;-59
2022/11/03 00:44:51;;;;;;;13.20;2.80;;;10.80;99.90;;;;;;5089908;28;20875;-59
2022/11/03 00:47:17;;;;;;;14.18;2.75;;;10.90;99.90;;;;;;5080242;28;20078;-58
2022/11/03 00:49:43;;;;;;;11.93;2.97;;;10.90;99.90;;;;;;5089110;28;20097;-60
2022/11/03 00:52:09;;;;;;;17.02;3.75;;;10.80;99.90;;;;;;5093938;28;20448;-59
2022/11/03 00:54:35;;;;;;;12.27;2.63;;;10.90;99.90;;;;;;5093964;28;20044;-58
2022/11/03 00:57:01;;;;;;;13.75;3.10;;;10.90;99.90;;;;;;5087511;28;21134;-59
2022/11/03 00:59:26;;;;;;;17.30;2.90;;;10.90;99.90;;;;;;5091933;28;20136;-60
2022/11/03 01:01:52;;;;;;;16.23;2.95;;;10.80;99.90;;;;;;5061895;28;20055;-59
2022/11/03 01:07:04;;;;;;;11.23;2.83;;;10.80;99.90;;;;;;5088358;28;20042;-59
2022/11/03 01:09:35;;;;;;;9.38;2.60;;;10.80;99.90;;;;;;5073516;28;20112;-59
2022/11/03 01:12:16;;;;;;;16.08;3.30;;;10.70;99.90;;;;;;5087709;28;20493;-59
2022/11/03 01:14:52;;;;;;;12.80;2.63;;;10.70;99.90;;;;;;5090100;28;20766;-60
2022/11/03 01:17:27;;;;;;;14.48;2.90;;;10.70;99.90;;;;;;5086111;28;20043;-60
2022/11/03 01:19:53;;;;;;;21.02;3.05;;;10.70;99.90;;;;;;5088049;28;20122;-59
2022/11/03 01:22:20;;;;;;;10.70;3.00;;;10.70;99.90;;;;;;5094183;28;20035;-60
2022/11/03 01:24:46;;;;;;;11.73;3.00;;;10.70;99.90;;;;;;5091710;28;20035;-59
2022/11/03 01:27:15;;;;;;;11.63;2.90;;;10.70;99.90;;;;;;5060258;28;20382;-59
2022/11/03 01:29:41;;;;;;;16.20;3.00;;;10.70;99.90;;;;;;5091067;28;20051;-58
2022/11/03 01:32:08;;;;;;;15.13;3.13;;;10.70;99.90;;;;;;5088468;28;20044;-60
2022/11/03 01:34:34;;;;;;;13.70;3.47;;;10.70;99.90;;;;;;5089452;28;20036;-59
2022/11/03 01:37:00;;;;;;;12.77;3.25;;;10.70;99.90;;;;;;5067415;28;20104;-58
2022/11/03 01:39:25;;;;;;;19.75;2.90;;;10.70;99.90;;;;;;5072237;28;20074;-59
2022/11/03 01:41:52;;;;;;;14.57;2.88;;;10.70;99.90;;;;;;5086419;28;20142;-58
2022/11/03 01:44:18;;;;;;;15.00;3.13;;;10.70;99.90;;;;;;5090770;28;20052;-59
2022/11/03 01:47:02;;;;;;;16.48;3.17;;;10.70;99.90;;;;;;5089355;28;20501;-60
2022/11/03 01:49:48;;;;;;;16.55;3.35;;;10.70;99.90;;;;;;5090814;28;20056;-58
2022/11/03 01:52:29;;;;;;;11.73;2.60;;;10.70;99.90;;;;;;5091318;28;20052;-59
2022/11/03 01:55:16;;;;;;;12.68;3.03;;;10.70;99.90;;;;;;5091554;28;20043;-59
2022/11/03 01:57:54;;;;;;;12.88;3.33;;;10.70;99.90;;;;;;5091109;28;20048;-59
2022/11/03 02:00:20;;;;;;;13.40;3.00;;;10.60;99.90;;;;;;5089889;28;20090;-59
2022/11/03 02:02:47;;;;;;;13.70;3.00;;;10.70;99.90;;;;;;5089637;28;20055;-60
2022/11/03 02:05:15;;;;;;;23.63;4.07;;;10.70;99.90;;;;;;5073819;28;20123;-58
2022/11/03 02:07:53;;;;;;;13.45;2.90;;;10.70;99.90;;;;;;5092863;28;20053;-60
2022/11/03 02:10:19;;;;;;;14.40;3.00;;;10.70;99.90;;;;;;5090518;28;20044;-59
2022/11/03 02:12:47;;;;;;;14.10;2.90;;;10.70;99.90;;;;;;5088609;28;20037;-59
2022/11/03 02:15:15;;;;;;;13.68;2.97;;;10.70;99.90;;;;;;5071750;28;20032;-60
2022/11/03 02:17:42;;;;;;;12.23;2.85;;;10.70;99.90;;;;;;5091069;28;20047;-59
2022/11/03 02:20:18;;;;;;;12.00;2.50;;;10.70;99.90;;;;;;5090719;28;20044;-60
2022/11/03 02:23:21;;;;;;;16.80;2.90;;;10.70;99.90;;;;;;5089131;28;20043;-58
2022/11/03 02:25:56;;;;;;;10.10;2.83;;;10.70;99.90;;;;;;5091110;28;20087;-59
2022/11/03 02:28:25;;;;;;;15.63;2.88;;;10.60;99.90;;;;;;5089817;28;20394;-58
2022/11/03 02:31:13;;;;;;;11.60;3.25;;;10.60;99.90;;;;;;5087763;28;20412;-59
2022/11/03 02:33:53;;;;;;;14.93;2.72;;;10.60;99.90;;;;;;5090718;28;20047;-59
2022/11/03 02:36:27;;;;;;;14.73;2.97;;;10.60;99.90;;;;;;5083715;28;20067;-58
2022/11/03 02:39:09;;;;;;;14.55;3.63;;;10.60;99.90;;;;;;5074799;28;20058;-58
2022/11/03 02:41:37;;;;;;;15.88;3.05;;;10.60;99.90;;;;;;5093958;28;20044;-59
2022/11/03 02:44:06;;;;;;;12.07;2.75;;;10.60;99.90;;;;;;5095402;28;20116;-59
2022/11/03 02:46:33;;;;;;;20.58;3.08;;;10.60;99.90;;;;;;5094829;28;21068;-59
2022/11/03 02:48:59;;;;;;;13.93;2.83;;;10.60;99.90;;;;;;5074819;28;20117;-59
2022/11/03 02:51:25;;;;;;;12.75;3.25;;;10.60;99.90;;;;;;5093321;28;20032;-59
2022/11/03 02:54:03;;;;;;;13.25;2.60;;;10.60;99.90;;;;;;5056913;28;20167;-59
2022/11/03 02:56:31;;;;;;;12.18;2.95;;;10.60;99.90;;;;;;5091866;28;20050;-59
2022/11/03 02:59:03;;;;;;;16.80;3.17;;;10.60;99.90;;;;;;5093881;28;20643;-60
2022/11/03 03:01:53;;;;;;;16.33;3.10;;;10.60;99.90;;;;;;5075526;28;20068;-58
2022/11/03 03:04:29;;;;;;;14.68;3.40;;;10.60;99.90;;;;;;5095624;28;20776;-59
2022/11/03 03:07:06;;;;;;;16.08;2.78;;;10.60;99.90;;;;;;5092711;28;20043;-58
2022/11/03 03:10:10;;;;;;;13.23;2.75;;;10.60;99.90;;;;;;5091046;28;20820;-58
2022/11/03 03:12:40;;;;;;;12.25;3.50;;;10.60;99.90;;;;;;5093334;27;20409;-59
2022/11/03 03:15:07;;;;;;;14.65;3.10;;;10.70;99.90;;;;;;5094294;28;20121;-59
2022/11/03 03:17:59;;;;;;;14.10;2.88;;;10.70;99.90;;;;;;5092998;28;20044;-59
2022/11/03 03:20:45;;;;;;;18.63;3.90;;;10.70;99.90;;;;;;5094501;28;20147;-58
2022/11/03 03:23:29;;;;;;;13.38;2.70;;;10.70;99.90;;;;;;5092412;28;20501;-59
2022/11/03 03:26:03;;;;;;;13.82;2.67;;;10.70;99.90;;;;;;5094124;28;20079;-59
2022/11/03 03:28:37;;;;;;;15.55;3.22;;;10.70;99.90;;;;;;5074717;28;20054;-59
2022/11/03 03:31:07;;;;;;;12.30;3.08;;;10.70;99.90;;;;;;5074347;28;21090;-60
2022/11/03 03:33:35;;;;;;;17.70;3.35;;;10.70;99.90;;;;;;5093858;28;20051;-59
2022/11/03 03:36:04;;;;;;;18.00;3.17;;;10.70;99.90;;;;;;5094164;28;20161;-58
2022/11/03 03:38:35;;;;;;;10.55;3.45;;;10.70;99.90;;;;;;5074349;28;20048;-60
2022/11/03 03:41:02;;;;;;;14.18;2.88;;;10.80;99.90;;;;;;5092923;28;20558;-59
2022/11/03 03:43:31;;;;;;;12.50;2.72;;;10.80;99.90;;;;;;5092438;28;20117;-59
2022/11/03 03:46:02;;;;;;;15.77;3.28;;;10.80;99.90;;;;;;5083377;28;20091;-59
2022/11/03 03:48:28;;;;;;;15.20;3.35;;;10.80;99.90;;;;;;5073561;28;20056;-59
2022/11/03 03:50:55;;;;;;;15.57;2.92;;;10.80;99.90;;;;;;5075485;28;20063;-59
2022/11/03 03:53:21;;;;;;;19.75;3.22;;;10.80;99.90;;;;;;5092429;28;20040;-59
2022/11/03 03:55:49;;;;;;;15.05;3.05;;;10.80;99.90;;;;;;5094278;28;20048;-59
2022/11/03 03:58:16;;;;;;;13.18;2.80;;;10.80;99.90;;;;;;5074298;28;20051;-59
2022/11/03 04:00:42;;;;;;;12.07;3.22;;;10.80;99.90;;;;;;5092716;28;20110;-58
2022/11/03 04:03:17;;;;;;;13.27;3.45;;;10.80;99.90;;;;;;5093244;28;20078;-58
2022/11/03 04:05:43;;;;;;;12.45;2.67;;;10.80;99.90;;;;;;5092467;28;20135;-58
2022/11/03 04:08:11;;;;;;;15.35;3.83;;;10.80;99.90;;;;;;5091803;27;20062;-59
2022/11/03 04:10:37;;;;;;;12.25;2.67;;;10.80;99.90;;;;;;5091336;28;20078;-59
2022/11/03 04:24:01;;;;;;;16.88;3.13;;;10.70;99.90;;;;;;5095619;28;20044;-60
2022/11/03 04:26:27;;;;;;;20.75;3.72;;;10.70;99.90;;;;;;5059732;28;20056;-58
2022/11/03 04:28:54;;;;;;;15.43;3.13;;;10.70;99.90;;;;;;5071458;28;20048;-59
2022/11/03 04:31:21;;;;;;;17.15;2.90;;;10.70;99.90;;;;;;5091737;28;20119;-58
2022/11/03 04:33:47;;;;;;;13.32;2.88;;;10.70;99.90;;;;;;5091460;28;20047;-58
2022/11/03 04:36:20;;;;;;;14.70;2.70;;;10.70;99.90;;;;;;5093510;28;20199;-60
2022/11/03 04:38:46;;;;;;;15.75;3.10;;;10.70;99.90;;;;;;5092939;28;20116;-60
2022/11/03 04:41:21;;;;;;;16.48;3.38;;;10.70;99.90;;;;;;5089461;28;20201;-58
2022/11/03 04:43:49;;;;;;;9.43;2.80;;;10.70;99.90;;;;;;5056501;28;20043;-59
2022/11/03 04:46:16;;;;;;;15.80;3.08;;;10.70;99.90;;;;;;5091376;28;20043;-58
2022/11/03 04:48:42;;;;;;;14.57;3.00;;;10.70;99.90;;;;;;5089206;28;20581;-59
2022/11/03 04:51:17;;;;;;;13.25;3.22;;;10.60;99.90;;;;;;5094131;28;20040;-60
2022/11/03 04:53:54;;;;;;;14.07;3.30;;;10.70;99.90;;;;;;5092004;28;20093;-58
2022/11/03 04:56:23;;;;;;;11.18;3.13;;;10.70;99.90;;;;;;5090589;28;20385;-58
2022/11/03 04:58:49;;;;;;;13.82;2.72;;;10.70;99.90;;;;;;5090632;28;20096;-58
2022/11/03 05:01:18;;;;;;;13.02;3.10;;;10.70;99.90;;;;;;5090501;27;20350;-60
2022/11/03 05:03:46;;;;;;;13.80;3.30;;;10.70;99.90;;;;;;5093715;27;20054;-60
2022/11/03 05:06:46;;;;;;;12.82;3.33;;;10.70;99.90;;;;;;5091239;28;20048;-59
2022/11/03 05:09:16;;;;;;;10.05;2.65;;;10.70;99.90;;;;;;5061759;28;20095;-59
2022/11/03 05:11:44;;;;;;;16.70;3.22;;;10.70;99.90;;;;;;5091568;28;20043;-59
2022/11/03 05:14:21;;;;;;;15.70;3.00;;;10.70;99.90;;;;;;5089321;28;20134;-59
2022/11/03 05:16:49;;;;;;;22.30;3.85;;;10.70;99.90;;;;;;5092185;28;20054;-59
2022/11/03 05:19:21;;;;;;;16.05;3.30;;;10.70;99.90;;;;;;5091147;28;20047;-60
2022/11/03 05:21:49;;;;;;;13.98;3.00;;;10.70;99.90;;;;;;5091004;28;20083;-59
2022/11/03 05:24:17;;;;;;;15.40;3.13;;;10.70;99.90;;;;;;5092152;28;20149;-60
2022/11/03 05:26:44;;;;;;;17.77;3.08;;;10.70;99.90;;;;;;5091857;28;20043;-58
2022/11/03 05:29:24;;;;;;;16.73;3.13;;;10.70;99.90;;;;;;5090215;28;20066;-59
2022/11/03 05:31:52;;;;;;;12.57;2.90;;;10.70;99.90;;;;;;5090437;28;20161;-58
2022/11/03 05:34:37;;;;;;;11.60;2.90;;;10.70;99.90;;;;;;5074563;28;20520;-59
2022/11/03 05:37:05;;;;;;;15.30;3.03;;;10.70;99.90;;;;;;5091920;28;20497;-59
2022/11/03 05:39:42;;;;;;;11.13;2.80;;;10.60;99.90;;;;;;5090017;28;20047;-59
2022/11/03 05:42:37;;;;;;;15.15;2.95;;;10.70;99.90;;;;;;5090661;28;20044;-58
2022/11/03 05:45:21;;;;;;;12.15;3.10;;;10.70;99.90;;;;;;5088808;28;20039;-58
2022/11/03 05:47:48;;;;;;;16.60;2.83;;;10.70;99.90;;;;;;5091100;28;20056;-58
2022/11/03 05:50:25;;;;;;;14.65;3.60;;;10.70;99.90;;;;;;5088197;28;20070;-59
2022/11/03 05:52:55;;;;;;;11.73;3.45;;;10.60;99.90;;;;;;5092244;28;20039;-59
2022/11/03 05:55:41;;;;;;;10.25;3.15;;;10.60;99.90;;;;;;5091134;28;20052;-58
2022/11/03 05:58:37;;;;;;;11.25;2.80;;;10.60;99.90;;;;;;5088794;28;20063;-58
2022/11/03 06:01:27;;;;;;;11.93;3.33;;;10.60;99.90;;;;;;5087942;28;20204;-59
2022/11/03 06:03:53;;;;;;;15.70;3.10;;;10.60;99.90;;;;;;5089504;28;21028;-59
2022/11/03 06:06:26;;;;;;;13.05;3.15;;;10.60;99.90;;;;;;5092350;28;20150;-58
2022/11/03 06:08:52;;;;;;;9.38;2.60;;;10.60;99.90;;;;;;5087732;28;20036;-59
2022/11/03 06:11:44;;;;;;;12.63;3.10;;;10.60;99.90;;;;;;5097023;28;20520;-59
2022/11/03 06:14:22;;;;;;;13.77;3.15;;;10.60;99.90;;;;;;5073367;28;20056;-58
2022/11/03 06:16:55;;;;;;;12.52;2.90;;;10.60;99.90;;;;;;5083866;28;20090;-59
2022/11/03 06:19:28;;;;;;;12.02;2.97;;;10.50;99.90;;;;;;5090607;28;20457;-59
2022/11/03 06:21:57;;;;;;;14.52;2.53;;;10.60;99.90;;;;;;5089816;28;20047;-60
2022/11/03 06:24:29;;;;;;;15.82;3.30;;;10.50;99.90;;;;;;5089417;28;20047;-60
2022/11/03 06:26:55;;;;;;;15.80;2.90;;;10.50;99.90;;;;;;5072181;28;20497;-59
2022/11/03 06:29:21;;;;;;;10.55;2.63;;;10.50;99.90;;;;;;5090190;27;20047;-60
2022/11/03 06:31:49;;;;;;;12.02;2.53;;;10.50;99.90;;;;;;5069616;28;20036;-59
2022/11/03 06:34:33;;;;;;;10.70;3.08;;;10.50;99.90;;;;;;5070827;28;20047;-59
2022/11/03 06:37:09;;;;;;;12.73;2.97;;;10.50;99.90;;;;;;5085329;28;20089;-59
2022/11/03 06:39:35;;;;;;;12.07;3.33;;;10.60;99.90;;;;;;5093989;28;20062;-60
2022/11/03 06:42:12;;;;;;;14.68;3.47;;;10.50;99.90;;;;;;5090351;28;20052;-59
2022/11/03 06:44:41;;;;;;;15.25;2.95;;;10.60;99.90;;;;;;5092326;28;20047;-59
2022/11/03 06:47:27;;;;;;;13.52;3.33;;;10.50;99.90;;;;;;5072196;28;21037;-59
2022/11/03 06:49:55;;;;;;;17.17;3.17;;;10.60;99.90;;;;;;5087351;28;20052;-59
2022/11/03 06:52:28;;;;;;;11.50;2.70;;;10.60;99.90;;;;;;5092291;28;20039;-58
2022/11/03 06:55:06;;;;;;;11.80;3.20;;;10.60;99.90;;;;;;5091210;28;20047;-60
2022/11/03 06:57:37;;;;;;;15.18;3.42;;;10.60;99.90;;;;;;5074056;27;20375;-59
2022/11/03 07:00:17;;;;;;;12.10;2.85;;;10.60;99.90;;;;;;5081522;27;20036;-59
2022/11/03 07:03:07;;;;;;;12.57;3.05;;;10.60;99.90;;;;;;5093446;28;20058;-59
2022/11/03 07:05:33;;;;;;;12.50;2.75;;;10.60;99.90;;;;;;5088386;28;20050;-58
2022/11/03 07:08:02;;;;;;;14.82;3.42;;;10.60;99.90;;;;;;5091087;28;20054;-59
2022/11/03 07:10:31;;;;;;;14.88;3.25;;;10.60;99.90;;;;;;5085523;28;20066;-59
2022/11/03 07:13:00;;;;;;;8.27;2.53;;;10.60;99.90;;;;;;5089607;28;20043;-59
2022/11/03 07:15:36;;;;;;;12.73;3.40;;;10.70;99.90;;;;;;5092632;28;20040;-59
2022/11/03 07:18:04;;;;;;;15.07;3.13;;;10.70;99.90;;;;;;5076716;28;20829;-59
2022/11/03 07:20:30;;;;;;;15.75;3.45;;;10.70;99.90;;;;;;5091518;28;20139;-58
2022/11/03 07:22:59;;;;;;;11.25;2.78;;;10.70;99.90;;;;;;5071848;28;20976;-60
2022/11/03 07:25:25;;;;;;;18.33;3.45;;;10.70;99.90;;;;;;5090195;28;20098;-59
2022/11/03 07:27:53;;;;;;;13.30;3.58;;;10.80;99.90;;;;;;5071316;28;20143;-57
2022/11/03 07:30:26;;;;;;;20.08;3.55;;;10.80;99.90;;;;;;5090013;28;20047;-59
2022/11/03 07:32:59;;;;;;;9.70;2.70;;;10.90;99.90;;;;;;5091170;28;20032;-59
2022/11/03 07:35:30;;;;;;;15.30;3.88;;;10.80;99.90;;;;;;5090337;28;20712;-58
2022/11/03 07:38:01;;;;;;;14.07;3.53;;;10.90;99.90;;;;;;5089690;28;20043;-59
2022/11/03 07:40:30;;;;;;;12.50;3.13;;;10.90;99.90;;;;;;5089745;28;20178;-60
2022/11/03 07:42:59;;;;;;;14.25;3.53;;;11.00;99.90;;;;;;5092080;28;20127;-58
2022/11/03 07:45:49;;;;;;;12.82;3.47;;;11.00;99.90;;;;;;5089602;28;20043;-59
2022/11/03 07:48:32;;;;;;;11.98;3.03;;;11.00;99.90;;;;;;5090139;28;20163;-59
2022/11/03 07:51:23;;;;;;;9.75;3.15;;;11.10;99.90;;;;;;5090837;28;20044;-59
2022/11/03 07:54:02;;;;;;;13.80;2.75;;;11.10;99.90;;;;;;5090476;28;20126;-59
2022/11/03 07:56:55;;;;;;;15.57;3.10;;;11.20;99.90;;;;;;5091132;28;20078;-59
2022/11/03 07:59:22;;;;;;;15.13;3.35;;;11.20;99.90;;;;;;5088993;28;20071;-59
2022/11/03 08:01:50;;;;;;;11.18;2.90;;;11.20;99.90;;;;;;5089240;28;20263;-59
2022/11/03 08:04:24;;;;;;;16.83;3.45;;;11.30;99.90;;;;;;5088041;28;20051;-59
2022/11/03 08:06:51;;;;;;;12.93;2.80;;;11.30;99.90;;;;;;5073801;28;20042;-59
2022/11/03 08:09:17;;;;;;;12.43;3.65;;;11.30;99.90;;;;;;5094030;28;20060;-59
2022/11/03 08:11:43;;;;;;;14.13;3.80;;;11.30;99.90;;;;;;5092078;28;20048;-60
2022/11/03 08:14:09;;;;;;;15.60;3.05;;;11.40;99.90;;;;;;5091920;28;20543;-59
2022/11/03 08:16:36;;;;;;;11.45;3.22;;;11.40;99.90;;;;;;5087853;28;20040;-60
2022/11/03 08:19:02;;;;;;;10.35;2.95;;;11.50;99.90;;;;;;5089068;28;20125;-58
2022/11/03 08:21:27;;;;;;;12.93;3.45;;;11.50;99.90;;;;;;5088308;28;20082;-59
2022/11/03 08:23:54;;;;;;;15.88;3.22;;;11.50;99.90;;;;;;5064758;28;20051;-59
2022/11/03 08:26:20;;;;;;;13.60;3.08;;;11.60;99.90;;;;;;5081205;27;20044;-59
2022/11/03 08:28:46;;;;;;;15.10;3.40;;;11.60;99.90;;;;;;5066849;28;20495;-59
2022/11/03 08:31:12;;;;;;;12.20;3.30;;;11.70;99.90;;;;;;5082272;28;20047;-58
2022/11/03 08:33:38;;;;;;;14.30;3.08;;;11.70;99.90;;;;;;5077665;28;20059;-59
2022/11/03 08:36:04;;;;;;;12.30;3.45;;;11.80;99.90;;;;;;5078040;28;20048;-59
2022/11/03 08:38:30;;;;;;;13.18;3.92;;;11.90;99.90;;;;;;5077629;28;20481;-60
2022/11/03 08:40:57;;;;;;;12.15;3.13;;;12.00;99.90;;;;;;5080478;28;20090;-59
2022/11/03 08:43:23;;;;;;;13.05;3.60;;;12.00;99.90;;;;;;5078065;28;20044;-59
2022/11/03 08:45:52;;;;;;;18.95;3.45;;;12.10;99.90;;;;;;5080761;28;20505;-60
2022/11/03 08:48:19;;;;;;;14.95;3.33;;;12.20;99.90;;;;;;5079532;28;20062;-58
2022/11/03 08:50:46;;;;;;;12.18;3.03;;;12.30;99.90;;;;;;5080402;28;20070;-58
2022/11/03 08:53:11;;;;;;;13.68;3.33;;;12.40;99.90;;;;;;5064928;28;20205;-58
2022/11/03 08:55:37;;;;;;;11.27;3.50;;;12.50;99.90;;;;;;5083098;28;20047;-60
2022/11/03 08:58:03;;;;;;;15.05;3.35;;;12.60;99.90;;;;;;5060251;28;20135;-60
2022/11/03 09:00:29;;;;;;;12.82;3.05;;;12.60;99.90;;;;;;5062128;28;20044;-58
2022/11/03 09:02:55;;;;;;;9.50;3.33;;;12.60;99.90;;;;;;5078560;28;20043;-58
2022/11/03 09:05:21;;;;;;;12.63;3.15;;;12.70;99.90;;;;;;5079729;28;20047;-59
2022/11/03 09:07:46;;;;;;;13.07;3.10;;;12.70;99.90;;;;;;5078552;28;20088;-60
2022/11/03 09:10:12;;;;;;;11.82;3.40;;;12.70;99.90;;;;;;5064644;28;20053;-60
2022/11/03 09:12:38;;;;;;;16.80;2.92;;;12.70;99.90;;;;;;5063173;28;20618;-58
2022/11/03 09:15:05;;;;;;;9.48;2.88;;;12.70;99.90;;;;;;5081077;28;20130;-58
2022/11/03 09:17:31;;;;;;;12.88;3.28;;;12.70;99.90;;;;;;5081234;28;20040;-59
2022/11/03 09:19:57;;;;;;;12.18;3.33;;;12.80;99.90;;;;;;5079209;28;20043;-59
2022/11/03 09:22:23;;;;;;;10.27;3.15;;;12.80;99.90;;;;;;5077564;28;20435;-59
2022/11/03 09:24:49;;;;;;;19.50;3.30;;;12.80;99.90;;;;;;5082042;28;20055;-58
2022/11/03 09:27:14;;;;;;;17.67;3.53;;;12.80;99.90;;;;;;5082248;28;20043;-60
2022/11/03 09:29:40;;;;;;;11.15;2.92;;;12.90;99.90;;;;;;5083440;28;20050;-58
2022/11/03 09:32:07;;;;;;;10.73;3.05;;;12.80;99.90;;;;;;5082658;28;20357;-59
2022/11/03 09:34:32;;;;;;;9.88;2.80;;;12.90;99.90;;;;;;5084126;28;20036;-59
2022/11/03 09:36:58;;;;;;;15.18;3.50;;;13.00;99.90;;;;;;5080218;28;20055;-59
2022/11/03 09:39:24;;;;;;;15.55;3.45;;;13.00;99.90;;;;;;5064881;28;20055;-59
2022/11/03 09:41:51;;;;;;;10.77;3.42;;;13.00;99.90;;;;;;5061900;28;20050;-60
2022/11/03 09:44:17;;;;;;;19.50;3.05;;;13.10;99.90;;;;;;5064258;28;20063;-59
2022/11/03 09:46:43;;;;;;;12.32;3.22;;;13.10;99.90;;;;;;5081683;27;21013;-59
2022/11/03 09:49:14;;;;;;;12.35;3.13;;;13.20;99.90;;;;;;5077115;28;20051;-60
2022/11/03 09:51:41;;;;;;;12.55;3.13;;;13.20;99.90;;;;;;5080931;28;20054;-60
2022/11/03 09:54:12;;;;;;;12.65;3.17;;;13.20;99.90;;;;;;5079986;28;20044;-60
2022/11/03 09:56:38;;;;;;;13.35;3.15;;;13.30;99.90;;;;;;5081321;28;20078;-59
2022/11/03 09:59:19;;;;;;;12.88;3.30;;;13.30;99.90;;;;;;5080779;28;20158;-58
2022/11/03 10:01:48;;;;;;;15.10;3.17;;;13.40;99.90;;;;;;5079540;28;20150;-60
2022/11/03 10:04:17;;;;;;;12.27;3.25;;;13.50;99.90;;;;;;5079268;28;20062;-59
2022/11/03 10:06:43;;;;;;;14.27;3.40;;;13.50;99.90;;;;;;5079157;28;20051;-59
2022/11/03 10:09:14;;;;;;;9.25;2.92;;;13.60;99.90;;;;;;5061655;28;20398;-59
2022/11/03 10:11:41;;;;;;;14.40;3.45;;;13.70;99.90;;;;;;5079767;28;20044;-60
2022/11/03 10:14:12;;;;;;;13.75;3.20;;;13.70;99.90;;;;;;5078323;28;20389;-59
2022/11/03 10:16:39;;;;;;;13.27;3.15;;;13.70;99.90;;;;;;5080683;28;20052;-60
2022/11/03 10:19:12;;;;;;;12.95;3.05;;;13.80;99.90;;;;;;5063769;28;20040;-59
2022/11/03 10:21:38;;;;;;;13.77;3.33;;;13.90;99.90;;;;;;5081725;28;20050;-59
2022/11/03 10:24:04;;;;;;;10.07;3.17;;;13.90;99.90;;;;;;5080886;28;20109;-59
2022/11/03 10:26:43;;;;;;;11.50;2.83;;;14.00;99.90;;;;;;5082298;28;20974;-59
2022/11/03 10:29:26;;;;;;;13.88;3.33;;;13.90;99.90;;;;;;5082651;28;20048;-59
2022/11/03 10:31:57;;;;;;;10.77;3.15;;;14.00;99.90;;;;;;5081896;28;20044;-59
2022/11/03 10:34:39;;;;;;;15.55;3.80;;;14.00;99.90;;;;;;5077830;28;20089;-60
2022/11/03 10:37:22;;;;;;;15.02;3.30;;;14.00;99.90;;;;;;5078827;28;20062;-60
2022/11/03 10:39:51;;;;;;;14.88;3.30;;;14.00;99.90;;;;;;5074362;28;20382;-59
2022/11/03 10:42:29;;;;;;;10.98;3.20;;;14.00;99.90;;;;;;5082317;28;20470;-59
2022/11/03 10:45:19;;;;;;;13.85;2.90;;;14.10;99.90;;;;;;5061816;28;20047;-59
2022/11/03 10:48:03;;;;;;;10.07;3.00;;;14.10;99.90;;;;;;5081541;28;20083;-59
2022/11/03 10:50:29;;;;;;;11.45;2.72;;;14.20;99.90;;;;;;5077597;28;20067;-59
2022/11/03 10:52:55;;;;;;;14.40;3.33;;;14.20;99.90;;;;;;5077648;28;20036;-60
2022/11/03 10:55:23;;;;;;;16.85;3.33;;;14.20;99.90;;;;;;5073862;28;20048;-59
2022/11/03 10:57:49;;;;;;;12.50;3.55;;;14.30;99.90;;;;;;5079176;28;20045;-58
2022/11/03 11:00:16;;;;;;;12.65;3.10;;;14.40;99.90;;;;;;5081209;28;20490;-59
2022/11/03 11:02:44;;;;;;;15.27;3.22;;;14.50;99.90;;;;;;5064085;28;20047;-59
2022/11/03 11:05:23;;;;;;;10.07;2.83;;;14.60;99.90;;;;;;5074028;28;20052;-59
2022/11/03 11:07:50;;;;;;;8.13;2.70;;;14.70;99.90;;;;;;5080600;27;21149;-60
2022/11/03 11:10:23;;;;;;;11.30;2.45;;;14.70;99.90;;;;;;5082021;28;20574;-60
2022/11/03 11:13:08;;;;;;;10.90;2.70;;;14.80;99.90;;;;;;5080459;28;20047;-59
2022/11/03 11:15:46;;;;;;;11.75;3.15;;;14.80;99.90;;;;;;5086850;28;20043;-58
2022/11/03 11:18:31;;;;;;;15.02;2.90;;;14.80;99.90;;;;;;5086898;28;20052;-60
2022/11/03 11:21:01;;;;;;;10.48;3.00;;;15.00;99.90;;;;;;5085731;28;20081;-59
2022/11/03 11:23:27;;;;;;;15.38;3.70;;;15.20;99.90;;;;;;5085612;28;20048;-59
2022/11/03 11:26:08;;;;;;;9.45;2.75;;;15.40;99.90;;;;;;5086494;28;20044;-60
2022/11/03 11:28:59;;;;;;;14.43;2.72;;;15.60;99.90;;;;;;5084117;28;20075;-60
2022/11/03 11:31:27;;;;;;;8.77;2.42;;;15.70;99.90;;;;;;5082990;28;20082;-59
2022/11/03 11:34:18;;;;;;;13.02;2.95;;;15.80;99.90;;;;;;5085615;28;20067;-59
2022/11/03 11:36:53;;;;;;;11.02;2.70;;;15.80;99.90;;;;;;5050421;28;20051;-59
2022/11/03 11:39:19;;;;;;;9.27;2.40;;;15.80;99.90;;;;;;5086502;28;20130;-60
2022/11/03 11:42:07;;;;;;;8.48;2.13;;;15.70;99.90;;;;;;5084644;28;20711;-59
2022/11/03 11:44:41;;;;;;;10.98;3.15;;;15.70;99.90;;;;;;5085177;27;20051;-60
2022/11/03 11:47:19;;;;;;;10.40;2.25;;;15.70;99.90;;;;;;5082795;28;20052;-58
2022/11/03 11:49:45;;;;;;;6.57;2.45;;;15.70;99.90;;;;;;5065886;28;20149;-60
2022/11/03 11:52:11;;;;;;;8.93;2.75;;;15.70;99.90;;;;;;5082666;28;20173;-59
2022/11/03 11:54:40;;;;;;;11.55;2.67;;;15.60;99.90;;;;;;5064583;28;20047;-59
2022/11/03 11:57:18;;;;;;;12.95;2.60;;;15.60;99.90;;;;;;5084661;28;20051;-58
2022/11/03 11:59:46;;;;;;;10.93;2.55;;;15.60;99.90;;;;;;5081832;28;20059;-59
2022/11/03 12:02:22;;;;;;;7.63;2.05;;;15.60;99.90;;;;;;5085151;28;20130;-60
2022/11/03 12:04:53;;;;;;;8.45;2.15;;;15.60;99.90;;;;;;5063072;28;20778;-60
2022/11/03 12:07:34;;;;;;;8.98;2.30;;;15.50;99.90;;;;;;5078710;28;26445;-60
2022/11/03 12:10:28;;;;;;;10.15;2.40;;;15.60;99.90;;;;;;5061478;28;20044;-60
2022/11/03 12:12:55;;;;;;;7.85;2.40;;;15.60;99.90;;;;;;5049063;28;20501;-60
2022/11/03 12:15:56;;;;;;;7.40;2.25;;;15.60;99.90;;;;;;5078311;28;20508;-61
2022/11/03 12:18:28;;;;;;;5.93;2.00;;;15.60;99.90;;;;;;5080287;27;20074;-61
2022/11/03 12:20:54;;;;;;;11.63;2.47;;;15.60;99.90;;;;;;5078739;28;20132;-61
2022/11/03 12:23:41;;;;;;;9.45;2.45;;;15.60;99.90;;;;;;5084291;28;20044;-61
2022/11/03 12:26:37;;;;;;;10.07;2.60;;;15.60;99.90;;;;;;5076918;28;20571;-59
2022/11/03 12:29:07;;;;;;;8.85;1.90;;;15.50;99.90;;;;;;5082497;28;20048;-60
2022/11/03 12:31:33;;;;;;;10.52;2.47;;;15.50;99.90;;;;;;5087445;28;20047;-60
2022/11/03 12:33:59;;;;;;;6.80;2.10;;;15.50;99.90;;;;;;5080991;27;20048;-59
2022/11/03 12:36:24;;;;;;;12.77;2.38;;;15.50;99.90;;;;;;5086449;28;20545;-61
2022/11/03 12:38:50;;;;;;;6.93;2.63;;;15.50;99.90;;;;;;5090599;28;20044;-59
2022/11/03 12:41:25;;;;;;;6.28;2.10;;;15.50;99.90;;;;;;5092140;28;20059;-60
2022/11/03 12:43:52;;;;;;;7.10;2.22;;;15.50;99.90;;;;;;5090017;28;20054;-62
2022/11/03 12:46:19;;;;;;;9.02;2.03;;;15.40;99.90;;;;;;5088031;27;20075;-62
2022/11/03 12:48:46;;;;;;;10.32;2.22;;;15.40;99.90;;;;;;5090465;28;20562;-62
2022/11/03 12:51:20;;;;;;;7.10;2.45;;;15.40;99.90;;;;;;5086217;28;20064;-63
2022/11/03 12:53:46;;;;;;;6.32;2.35;;;15.40;99.90;;;;;;5087721;28;20636;-62
2022/11/03 12:56:13;;;;;;;7.90;2.20;;;15.40;99.90;;;;;;5088720;28;20048;-63
2022/11/03 12:58:40;;;;;;;8.70;2.13;;;15.40;99.90;;;;;;5069592;28;20055;-62
2022/11/03 13:01:07;;;;;;;9.70;2.58;;;15.40;99.90;;;;;;5089410;28;20621;-63
2022/11/03 13:03:34;;;;;;;8.85;2.35;;;15.40;99.90;;;;;;5088142;28;20320;-63
2022/11/03 13:06:03;;;;;;;6.05;2.10;;;15.40;99.90;;;;;;5087939;28;20043;-63
2022/11/03 13:08:30;;;;;;;10.23;2.40;;;15.40;99.90;;;;;;5092184;28;20048;-63
2022/11/03 13:10:56;;;;;;;6.82;2.03;;;15.50;99.90;;;;;;5091522;28;20046;-63
2022/11/03 13:13:22;;;;;;;8.98;2.15;;;15.50;99.90;;;;;;5087571;28;20048;-62
2022/11/03 13:15:48;;;;;;;8.02;2.08;;;15.50;99.90;;;;;;5078025;28;20051;-63
2022/11/03 13:18:14;;;;;;;6.72;2.20;;;15.50;99.90;;;;;;5088091;28;20391;-63
2022/11/03 13:20:41;;;;;;;9.48;2.25;;;15.50;99.90;;;;;;5070315;28;20485;-63
2022/11/03 13:23:07;;;;;;;10.98;2.28;;;15.50;99.90;;;;;;5088659;28;20047;-63
2022/11/03 13:25:33;;;;;;;10.57;2.45;;;15.60;99.90;;;;;;5069562;28;20482;-63
2022/11/03 13:28:01;;;;;;;10.23;2.25;;;15.60;99.90;;;;;;5082186;28;20047;-63
2022/11/03 13:30:27;;;;;;;7.45;2.35;;;15.60;99.90;;;;;;5088359;28;20507;-64
2022/11/03 13:32:53;;;;;;;8.18;2.05;;;15.60;99.90;;;;;;5087446;28;20040;-63
2022/11/03 13:35:19;;;;;;;6.95;2.40;;;15.60;99.90;;;;;;5086362;28;20031;-63
2022/11/03 13:37:45;;;;;;;8.23;2.25;;;15.70;99.90;;;;;;5061957;28;20050;-63
2022/11/03 13:40:12;;;;;;;7.60;2.28;;;15.60;99.90;;;;;;5053271;28;20494;-63
2022/11/03 13:42:38;;;;;;;7.68;2.20;;;15.60;99.90;;;;;;5084905;28;20048;-63
2022/11/03 13:45:06;;;;;;;9.27;2.00;;;15.60;99.90;;;;;;5066045;28;20108;-63
2022/11/03 13:47:32;;;;;;;10.88;2.45;;;15.60;99.90;;;;;;5087218;28;20039;-63
2022/11/03 13:49:59;;;;;;;9.75;2.40;;;15.50;99.90;;;;;;5086185;28;20138;-64